createdAt,value
2022-08-17T00:06:06.727Z,28.1
2022-08-17T00:16:16.229Z,27.9
2022-08-17T00:26:34.461Z,27.9
2022-08-17T01:16:38.548Z,27.7
2022-08-17T01:26:46.716Z,27.4
2022-08-17T01:36:53.946Z,27.5
2022-08-17T02:17:09.057Z,27.3
2022-08-17T02:47:21.710Z,27.2
2022-08-17T02:57:30.311Z,27.1
2022-08-17T03:07:38.691Z,27
2022-08-17T03:37:52.456Z,27.2
2022-08-17T03:58:00.520Z,26.8
2022-08-17T04:08:08.794Z,26.9
2022-08-17T04:18:16.939Z,26.8
2022-08-17T04:28:25.057Z,26.9
2022-08-17T04:38:33.369Z,26.8
2022-08-17T04:48:41.717Z,26.9
2022-08-17T04:58:42.780Z,26.9
2022-08-17T05:08:50.985Z,26.9
2022-08-17T05:19:00.202Z,27
2022-08-17T05:29:08.520Z,27
2022-08-17T05:39:17.300Z,27
2022-08-17T05:49:24.512Z,26.9
2022-08-17T05:59:32.687Z,26.6
2022-08-17T06:09:40.903Z,26.7
2022-08-17T06:19:49.023Z,26.9
2022-08-17T06:29:57.357Z,27
2022-08-17T06:40:05.707Z,27.1
2022-08-17T06:50:13.794Z,27.3
2022-08-17T07:10:24.364Z,27
2022-08-17T07:20:32.797Z,27.3
2022-08-17T07:30:44.606Z,27.5
2022-08-17T07:40:48.287Z,28.2
2022-08-17T07:50:49.355Z,28.9
2022-08-17T08:00:57.655Z,28.4
2022-08-17T08:11:05.515Z,28.1
2022-08-17T08:31:16.908Z,27.8
2022-08-17T08:41:25.004Z,27.7
2022-08-17T09:01:44.502Z,28.1
2022-08-17T09:22:02.550Z,27.9
2022-08-17T09:31:46.526Z,27.8
2022-08-17T10:01:57.897Z,27.1
2022-08-17T10:11:59.650Z,27.4
2022-08-17T10:22:14.862Z,28.1
2022-08-17T10:32:12.441Z,29
2022-08-17T10:42:30.195Z,29.7
2022-08-17T10:52:41.232Z,30
2022-08-17T11:02:43.826Z,30.6
2022-08-17T11:12:42.305Z,31.6
2022-08-17T11:22:49.314Z,31.8
2022-08-17T11:32:58.869Z,32.2
2022-08-17T11:43:12.070Z,32.4
2022-08-17T11:53:14.971Z,31.7
2022-08-17T12:03:20.038Z,32.1
2022-08-17T12:13:27.329Z,32.6
2022-08-17T12:23:26.084Z,33
2022-08-17T12:33:41.139Z,32.9
2022-08-17T12:43:37.799Z,33.5
2022-08-17T12:53:39.194Z,33.9
2022-08-17T13:06:58.144Z,33
2022-08-17T13:13:54.587Z,33.1
2022-08-17T13:24:15.968Z,32.5
2022-08-17T13:34:13.903Z,32.7
2022-08-17T13:44:12.022Z,32.6
2022-08-17T13:54:17.146Z,32.1
2022-08-17T14:04:19.476Z,32.4
2022-08-17T14:14:23.126Z,32.3
2022-08-17T14:24:27.614Z,32.2
2022-08-17T14:34:26.113Z,32
2022-08-17T14:44:35.313Z,32
2022-08-17T14:54:36.815Z,31.9
2022-08-17T15:04:50.460Z,31.7
2022-08-17T15:14:46.870Z,31.6
2022-08-17T15:24:50.459Z,31.7
2022-08-17T15:34:53.711Z,31.6
2022-08-17T15:45:04.624Z,31.2
2022-08-17T15:55:06.439Z,31
2022-08-17T16:05:14.067Z,31.4
2022-08-17T16:15:21.913Z,30.8
2022-08-17T16:25:38.537Z,30.7
2022-08-17T16:35:36.227Z,30.3
2022-08-17T16:45:38.150Z,29.9
2022-08-17T16:55:46.687Z,29.9
2022-08-17T17:05:57.897Z,29.8
2022-08-17T17:16:37.257Z,29.5
2022-08-17T17:36:09.375Z,29
2022-08-17T17:56:42.920Z,28.9
2022-08-17T18:06:32.745Z,28.9
2022-08-17T18:26:44.836Z,25.5
2022-08-17T18:36:45.211Z,25
2022-08-17T18:46:53.564Z,23.1
2022-08-17T18:57:01.675Z,22.6
2022-08-17T19:07:10.088Z,23.4
2022-08-17T19:17:19.379Z,23.2
2022-08-17T19:27:23.627Z,23.3
2022-08-17T19:37:21.503Z,22.8
2022-08-17T19:47:51.452Z,23.4
2022-08-17T19:57:29.645Z,23
2022-08-17T20:07:33.337Z,23.1
2022-08-17T20:17:42.939Z,23.2
2022-08-17T20:27:52.361Z,22.6
2022-08-17T20:37:58.959Z,22.9
2022-08-17T20:48:30.791Z,23.5
2022-08-17T20:58:14.910Z,24
2022-08-17T21:08:23.040Z,23.6
2022-08-17T21:18:31.998Z,23.2
2022-08-17T21:29:00.143Z,23.1
2022-08-17T21:38:46.212Z,23.2
2022-08-17T21:48:54.293Z,23.2
2022-08-17T21:59:00.916Z,23.1
2022-08-17T22:09:09.065Z,23.1
2022-08-17T22:19:17.682Z,22.9
2022-08-17T22:29:26.276Z,23.4
2022-08-17T22:39:34.975Z,23.4
2022-08-17T22:49:53.061Z,23.3
2022-08-17T22:59:53.376Z,23.3
2022-08-17T23:09:53.169Z,23.2
2022-08-17T23:20:01.412Z,23.2
2022-08-17T23:30:09.630Z,22.4
2022-08-17T23:40:17.819Z,22.3
2022-08-17T23:50:29.937Z,22.7
